Time,TemperatureF,DewpointF,PressureIn,WindDirection,WindDirectionDegrees,WindSpeedMPH,WindSpeedGustMPH,Humidity,HourlyPrecipIn,Conditions,Clouds,dailyrainin,SolarRadiationWatts/m^2,SoftwareType,DateUTC
2013-07-21 00:07:00,71.2,69.0,29.96,East,86,0.0,0.0,94,0.00,,,0.00,0,weatherlink.com 1.10,2013-07-21 04:07:00,
2013-07-21 00:22:00,71.0,70.0,29.96,East,86,0.0,0.0,95,0.00,,,0.00,0,weatherlink.com 1.10,2013-07-21 04:22:00,
2013-07-21 00:37:00,70.8,69.0,29.96,East,86,0.0,0.0,95,0.00,,,0.00,0,weatherlink.com 1.10,2013-07-21 04:37:00,
2013-07-21 00:52:00,70.4,69.0,29.96,East,86,0.0,0.0,95,0.00,,,0.00,0,weatherlink.com 1.10,2013-07-21 04:52:00,
2013-07-21 01:07:00,70.0,69.0,29.95,East,86,0.0,0.0,95,0.00,,,0.00,0,weatherlink.com 1.10,2013-07-21 05:07:00,
2013-07-21 01:22:00,69.8,69.0,29.95,East,86,0.0,0.0,96,0.00,,,0.00,0,weatherlink.com 1.10,2013-07-21 05:22:00,
2013-07-21 01:37:00,69.4,68.0,29.95,East,94,0.0,0.0,96,0.00,,,0.00,0,weatherlink.com 1.10,2013-07-21 05:37:00,
2013-07-21 01:52:00,69.2,68.0,29.95,East,94,0.0,0.0,96,0.00,,,0.00,0,weatherlink.com 1.10,2013-07-21 05:52:00,
2013-07-21 02:07:00,69.3,69.0,29.95,ESE,105,0.0,3.0,97,0.00,,,0.00,0,weatherlink.com 1.10,2013-07-21 06:07:00,
2013-07-21 02:22:00,69.3,69.0,29.95,ESE,105,0.0,0.0,97,0.00,,,0.00,0,weatherlink.com 1.10,2013-07-21 06:22:00,
2013-07-21 02:37:00,69.4,69.0,29.95,ESE,105,0.0,0.0,97,0.00,,,0.00,0,weatherlink.com 1.10,2013-07-21 06:37:00,
2013-07-21 02:52:00,69.3,69.0,29.95,ESE,105,0.0,0.0,97,0.00,,,0.00,0,weatherlink.com 1.10,2013-07-21 06:52:00,
2013-07-21 03:07:00,69.3,69.0,29.95,ESE,105,0.0,0.0,97,0.00,,,0.00,0,weatherlink.com 1.10,2013-07-21 07:07:00,
2013-07-21 03:22:00,69.3,69.0,29.94,ESE,105,0.0,0.0,97,0.00,,,0.00,0,weatherlink.com 1.10,2013-07-21 07:22:00,
2013-07-21 03:37:00,69.1,68.0,29.94,ESE,105,0.0,0.0,97,0.00,,,0.00,0,weatherlink.com 1.10,2013-07-21 07:37:00,
2013-07-21 03:52:00,69.1,68.0,29.94,ESE,105,0.0,1.0,97,0.00,,,0.00,0,weatherlink.com 1.10,2013-07-21 07:52:00,
2013-07-21 04:07:00,68.8,68.0,29.93,East,101,0.0,2.0,96,0.00,,,0.00,0,weatherlink.com 1.10,2013-07-21 08:07:00,
2013-07-21 04:22:00,68.7,68.0,29.93,East,101,0.0,1.0,96,0.00,,,0.00,0,weatherlink.com 1.10,2013-07-21 08:22:00,
2013-07-21 04:37:00,68.5,67.0,29.93,SSE,154,0.0,1.0,96,0.00,,,0.00,0,weatherlink.com 1.10,2013-07-21 08:37:00,
2013-07-21 04:52:00,68.3,67.0,29.93,SSE,154,0.0,0.0,96,0.00,,,0.00,0,weatherlink.com 1.10,2013-07-21 08:52:00,
2013-07-21 05:07:00,68.3,68.0,29.93,ESE,111,0.0,0.0,97,0.00,,,0.00,0,weatherlink.com 1.10,2013-07-21 09:07:00,
2013-07-21 05:22:00,68.2,67.0,29.93,ESE,109,0.0,3.0,97,0.00,,,0.00,0,weatherlink.com 1.10,2013-07-21 09:22:00,
2013-07-21 05:37:00,68.3,68.0,29.93,ESE,119,0.0,1.0,97,0.00,,,0.00,0,weatherlink.com 1.10,2013-07-21 09:37:00,
2013-07-21 05:52:00,68.4,68.0,29.93,ESE,119,0.0,1.0,97,0.00,,,0.00,0,weatherlink.com 1.10,2013-07-21 09:52:00,
2013-07-21 06:07:00,68.6,68.0,29.94,ESE,119,0.0,0.0,97,0.00,,,0.00,0,weatherlink.com 1.10,2013-07-21 10:07:00,
2013-07-21 06:22:00,68.8,68.0,29.95,ESE,119,0.0,0.0,97,0.00,,,0.00,0,weatherlink.com 1.10,2013-07-21 10:22:00,
2013-07-21 06:37:00,69.0,68.0,29.95,ESE,119,0.0,0.0,97,0.00,,,0.00,0,weatherlink.com 1.10,2013-07-21 10:37:00,
2013-07-21 06:52:00,69.3,69.0,29.95,ESE,119,0.0,0.0,97,0.00,,,0.00,0,weatherlink.com 1.10,2013-07-21 10:52:00,
2013-07-21 07:07:00,69.5,69.0,29.96,ESE,119,0.0,0.0,97,0.00,,,0.00,7,weatherlink.com 1.10,2013-07-21 11:07:00,
2013-07-21 07:22:00,69.9,69.0,29.96,East,94,0.0,0.0,97,0.00,,,0.00,18,weatherlink.com 1.10,2013-07-21 11:22:00,
2013-07-21 07:37:00,70.2,69.0,29.96,East,94,0.0,0.0,97,0.00,,,0.00,67,weatherlink.com 1.10,2013-07-21 11:37:00,
2013-07-21 07:52:00,70.7,70.0,29.95,ESE,106,0.0,1.0,97,0.00,,,0.00,95,weatherlink.com 1.10,2013-07-21 11:52:00,
2013-07-21 08:07:00,70.9,70.0,29.97,NNW,346,2.0,3.0,96,0.00,,,0.00,91,weatherlink.com 1.10,2013-07-21 12:07:00,
2013-07-21 08:22:00,71.3,70.0,29.97,WNW,290,0.0,4.0,95,0.00,,,0.00,121,weatherlink.com 1.10,2013-07-21 12:22:00,
2013-07-21 08:37:00,71.5,70.0,29.98,NW,320,1.0,3.0,94,0.00,,,0.00,51,weatherlink.com 1.10,2013-07-21 12:37:00,
2013-07-21 08:52:00,71.6,69.0,29.98,NW,317,1.0,3.0,92,0.00,,,0.00,77,weatherlink.com 1.10,2013-07-21 12:52:00,
2013-07-21 09:07:00,71.7,70.0,29.98,NW,321,1.0,2.0,93,0.00,,,0.00,54,weatherlink.com 1.10,2013-07-21 13:07:00,
2013-07-21 09:22:00,71.9,70.0,29.98,NW,310,1.0,2.0,92,0.00,,,0.00,79,weatherlink.com 1.10,2013-07-21 13:22:00,
2013-07-21 09:37:00,72.0,70.0,29.98,NW,325,1.0,4.0,92,0.00,,,0.00,86,weatherlink.com 1.10,2013-07-21 13:37:00,
2013-07-21 09:53:00,72.5,70.0,29.98,NNW,341,0.0,3.0,90,0.00,,,0.00,272,weatherlink.com 1.10,2013-07-21 13:53:00,
2013-07-21 10:08:00,74.0,71.0,29.98,WSW,258,0.0,2.0,89,0.00,,,0.00,229,weatherlink.com 1.10,2013-07-21 14:08:00,
2013-07-21 10:23:00,74.3,70.0,29.98,SSW,196,3.0,4.0,87,0.00,,,0.00,281,weatherlink.com 1.10,2013-07-21 14:23:00,
2013-07-21 10:38:00,74.7,70.0,29.98,NNW,331,0.0,3.0,85,0.00,,,0.00,279,weatherlink.com 1.10,2013-07-21 14:38:00,
2013-07-21 10:53:00,75.1,70.0,29.98,SW,229,0.0,2.0,85,0.00,,,0.00,250,weatherlink.com 1.10,2013-07-21 14:53:00,
2013-07-21 11:08:00,75.9,72.0,29.98,South,180,0.0,2.0,86,0.00,,,0.00,791,weatherlink.com 1.10,2013-07-21 15:08:00,
2013-07-21 11:23:00,76.6,71.0,29.98,SW,220,0.0,4.0,82,0.00,,,0.00,476,weatherlink.com 1.10,2013-07-21 15:23:00,
2013-07-21 11:38:00,76.8,71.0,29.98,WSW,251,0.0,5.0,83,0.00,,,0.00,468,weatherlink.com 1.10,2013-07-21 15:38:00,
2013-07-21 11:53:00,78.6,72.0,29.98,ENE,66,0.0,2.0,81,0.00,,,0.00,840,weatherlink.com 1.10,2013-07-21 15:53:00,
2013-07-21 12:08:00,78.9,72.0,29.97,SSW,206,2.0,4.0,78,0.00,,,0.00,911,weatherlink.com 1.10,2013-07-21 16:08:00,
2013-07-21 12:23:00,79.6,72.0,29.97,South,171,0.0,4.0,77,0.00,,,0.00,346,weatherlink.com 1.10,2013-07-21 16:23:00,
2013-07-21 12:38:00,79.4,72.0,29.96,SW,218,0.0,3.0,77,0.00,,,0.00,285,weatherlink.com 1.10,2013-07-21 16:38:00,
2013-07-21 12:53:00,80.2,72.0,29.95,NE,55,3.0,3.0,75,0.00,,,0.00,914,weatherlink.com 1.10,2013-07-21 16:53:00,
2013-07-21 13:08:00,81.3,71.0,29.95,SW,217,2.0,4.0,72,0.00,,,0.00,925,weatherlink.com 1.10,2013-07-21 17:08:00,
2013-07-21 13:23:00,82.0,71.0,29.94,SW,232,2.0,5.0,70,0.00,,,0.00,944,weatherlink.com 1.10,2013-07-21 17:23:00,
2013-07-21 13:38:00,82.7,72.0,29.94,North,349,3.0,4.0,71,0.00,,,0.00,933,weatherlink.com 1.10,2013-07-21 17:38:00,
2013-07-21 13:53:00,82.5,71.0,29.93,NNW,345,6.0,7.0,68,0.00,,,0.00,919,weatherlink.com 1.10,2013-07-21 17:53:00,
2013-07-21 14:08:00,82.6,71.0,29.92,NNW,336,1.0,7.0,69,0.00,,,0.00,911,weatherlink.com 1.10,2013-07-21 18:08:00,
2013-07-21 14:23:00,83.2,70.0,29.92,SSE,164,1.0,5.0,64,0.00,,,0.00,916,weatherlink.com 1.10,2013-07-21 18:23:00,
2013-07-21 14:38:00,84.1,70.0,29.91,WSW,238,3.0,4.0,62,0.00,,,0.00,914,weatherlink.com 1.10,2013-07-21 18:38:00,
2013-07-21 14:53:00,84.4,71.0,29.90,WSW,254,1.0,6.0,64,0.00,,,0.00,911,weatherlink.com 1.10,2013-07-21 18:53:00,
2013-07-21 15:08:00,84.7,70.0,29.89,WSW,238,4.0,8.0,61,0.00,,,0.00,937,weatherlink.com 1.10,2013-07-21 19:08:00,
2013-07-21 15:23:00,84.5,71.0,29.89,West,277,0.0,8.0,65,0.00,,,0.00,877,weatherlink.com 1.10,2013-07-21 19:23:00,
2013-07-21 15:38:00,84.1,71.0,29.88,NW,319,3.0,7.0,65,0.00,,,0.00,828,weatherlink.com 1.10,2013-07-21 19:38:00,
2013-07-21 15:53:00,84.8,72.0,29.88,North,349,6.0,6.0,66,0.00,,,0.00,849,weatherlink.com 1.10,2013-07-21 19:53:00,
2013-07-21 16:08:00,84.8,73.0,29.88,WNW,289,0.0,5.0,67,0.00,,,0.00,911,weatherlink.com 1.10,2013-07-21 20:08:00,
2013-07-21 16:23:00,83.0,73.0,29.88,NW,311,1.0,5.0,71,0.00,,,0.00,295,weatherlink.com 1.10,2013-07-21 20:23:00,
2013-07-21 16:38:00,82.3,72.0,29.88,NW,322,3.0,11.0,70,0.00,,,0.00,109,weatherlink.com 1.10,2013-07-21 20:38:00,
2013-07-21 16:54:00,77.6,70.0,29.88,WNW,286,3.0,8.0,78,0.01,,,0.01,58,weatherlink.com 1.10,2013-07-21 20:54:00,
2013-07-21 17:09:00,76.4,72.0,29.87,SW,234,1.0,6.0,85,0.01,,,0.01,221,weatherlink.com 1.10,2013-07-21 21:09:00,
2013-07-21 17:24:00,74.9,71.0,29.87,SW,214,2.0,9.0,87,0.02,,,0.02,350,weatherlink.com 1.10,2013-07-21 21:24:00,
2013-07-21 17:39:00,75.5,71.0,29.88,South,180,1.0,6.0,86,0.02,,,0.02,262,weatherlink.com 1.10,2013-07-21 21:39:00,
2013-07-21 17:54:00,75.0,70.0,29.89,SSW,194,2.0,7.0,85,0.01,,,0.02,104,weatherlink.com 1.10,2013-07-21 21:54:00,
2013-07-21 18:09:00,75.0,71.0,29.89,SSE,153,0.0,3.0,86,0.01,,,0.02,127,weatherlink.com 1.10,2013-07-21 22:09:00,
2013-07-21 18:24:00,75.2,71.0,29.90,SSE,168,2.0,4.0,85,0.00,,,0.02,118,weatherlink.com 1.10,2013-07-21 22:24:00,
2013-07-21 18:39:00,75.2,71.0,29.89,South,181,1.0,3.0,86,0.00,,,0.02,105,weatherlink.com 1.10,2013-07-21 22:39:00,
2013-07-21 18:54:00,74.5,71.0,29.90,ESE,105,0.0,3.0,87,0.01,,,0.03,86,weatherlink.com 1.10,2013-07-21 22:54:00,
2013-07-21 19:09:00,73.9,70.0,29.90,SSE,149,2.0,7.0,87,0.01,,,0.03,116,weatherlink.com 1.10,2013-07-21 23:09:00,
2013-07-21 19:24:00,74.0,70.0,29.90,SSE,154,0.0,3.0,88,0.01,,,0.03,121,weatherlink.com 1.10,2013-07-21 23:24:00,
2013-07-21 19:40:00,73.8,70.0,29.91,East,86,0.0,2.0,88,0.01,,,0.03,100,weatherlink.com 1.10,2013-07-21 23:40:00,
2013-07-21 19:54:00,73.8,70.0,29.90,ESE,103,0.0,2.0,87,0.00,,,0.03,111,weatherlink.com 1.10,2013-07-21 23:54:00,
2013-07-21 20:09:00,73.7,70.0,29.90,ESE,103,0.0,0.0,87,0.00,,,0.03,42,weatherlink.com 1.10,2013-07-22 00:09:00,
2013-07-21 20:24:00,73.2,70.0,29.90,ESE,103,0.0,0.0,89,0.00,,,0.03,28,weatherlink.com 1.10,2013-07-22 00:24:00,
2013-07-21 20:39:00,72.5,69.0,29.90,ESE,103,0.0,1.0,89,0.00,,,0.03,7,weatherlink.com 1.10,2013-07-22 00:39:00,
2013-07-21 20:54:00,71.9,69.0,29.92,ESE,103,0.0,0.0,90,0.00,,,0.03,0,weatherlink.com 1.10,2013-07-22 00:54:00,
2013-07-21 21:09:00,71.7,70.0,29.93,SSW,202,5.0,5.0,93,0.00,,,0.03,0,weatherlink.com 1.10,2013-07-22 01:09:00,
2013-07-21 21:24:00,71.7,69.0,29.93,SE,138,0.0,3.0,92,0.00,,,0.03,0,weatherlink.com 1.10,2013-07-22 01:24:00,
2013-07-21 21:39:00,70.9,69.0,29.93,SE,139,0.0,1.0,92,0.00,,,0.03,0,weatherlink.com 1.10,2013-07-22 01:39:00,
2013-07-21 21:54:00,70.6,69.0,29.94,East,83,1.0,2.0,93,0.00,,,0.03,0,weatherlink.com 1.10,2013-07-22 01:54:00,
2013-07-21 22:09:00,70.6,69.0,29.94,SE,143,0.0,2.0,93,0.00,,,0.03,0,weatherlink.com 1.10,2013-07-22 02:09:00,
2013-07-21 22:24:00,70.4,69.0,29.94,SE,143,0.0,0.0,94,0.00,,,0.03,0,weatherlink.com 1.10,2013-07-22 02:24:00,
2013-07-21 22:39:00,70.3,69.0,29.95,ENE,78,1.0,2.0,94,0.00,,,0.03,0,weatherlink.com 1.10,2013-07-22 02:39:00,
2013-07-21 22:54:00,70.4,68.0,29.95,East,80,2.0,3.0,93,0.00,,,0.03,0,weatherlink.com 1.10,2013-07-22 02:54:00,
2013-07-21 23:09:00,71.1,68.0,29.96,South,179,3.0,4.0,91,0.00,,,0.03,0,weatherlink.com 1.10,2013-07-22 03:09:00,
2013-07-21 23:24:00,71.2,69.0,29.96,SE,130,0.0,1.0,91,0.00,,,0.03,0,weatherlink.com 1.10,2013-07-22 03:24:00,
2013-07-21 23:39:00,71.0,69.0,29.95,SE,136,0.0,2.0,92,0.00,,,0.03,0,weatherlink.com 1.10,2013-07-22 03:39:00,
2013-07-21 23:54:00,70.7,69.0,29.95,SE,136,0.0,1.0,93,0.00,,,0.03,0,weatherlink.com 1.10,2013-07-22 03:54:00,